sensor_id;sensor_type;location;lat;lon;timestamp;P1;durP1;ratioP1;P2;durP2;ratioP2
78205;SDS011;67480;48.920;12.880;2023-02-01T00:02:00;15.45;;;8.63;;
78205;SDS011;67480;48.920;12.880;2023-02-01T00:04:26;11.70;;;7.85;;
78205;SDS011;67480;48.920;12.880;2023-02-01T00:06:52;10.52;;;8.05;;
78205;SDS011;67480;48.920;12.880;2023-02-01T00:09:17;9.48;;;7.25;;
78205;SDS011;67480;48.920;12.880;2023-02-01T00:11:43;14.30;;;8.50;;
78205;SDS011;67480;48.920;12.880;2023-02-01T00:14:08;10.90;;;8.55;;
78205;SDS011;67480;48.920;12.880;2023-02-01T00:16:34;11.07;;;7.70;;
78205;SDS011;67480;48.920;12.880;2023-02-01T00:19:07;10.52;;;7.85;;
78205;SDS011;67480;48.920;12.880;2023-02-01T00:21:36;12.00;;;8.40;;
78205;SDS011;67480;48.920;12.880;2023-02-01T00:24:01;10.68;;;7.55;;
78205;SDS011;67480;48.920;12.880;2023-02-01T00:26:34;12.90;;;7.78;;
78205;SDS011;67480;48.920;12.880;2023-02-01T00:29:02;10.65;;;8.18;;
78205;SDS011;67480;48.920;12.880;2023-02-01T00:31:29;13.65;;;8.77;;
78205;SDS011;67480;48.920;12.880;2023-02-01T00:33:55;11.82;;;7.28;;
78205;SDS011;67480;48.920;12.880;2023-02-01T00:36:20;11.63;;;8.55;;
78205;SDS011;67480;48.920;12.880;2023-02-01T00:38:46;9.00;;;8.02;;
78205;SDS011;67480;48.920;12.880;2023-02-01T00:41:12;9.82;;;7.28;;
78205;SDS011;67480;48.920;12.880;2023-02-01T00:43:40;12.55;;;8.00;;
78205;SDS011;67480;48.920;12.880;2023-02-01T00:46:06;9.05;;;7.13;;
78205;SDS011;67480;48.920;12.880;2023-02-01T00:48:31;10.32;;;7.72;;
78205;SDS011;67480;48.920;12.880;2023-02-01T00:51:00;11.80;;;7.60;;
78205;SDS011;67480;48.920;12.880;2023-02-01T00:53:26;10.38;;;7.40;;
78205;SDS011;67480;48.920;12.880;2023-02-01T00:55:52;11.20;;;6.70;;
78205;SDS011;67480;48.920;12.880;2023-02-01T00:58:17;8.88;;;7.07;;
78205;SDS011;67480;48.920;12.880;2023-02-01T01:00:42;9.93;;;7.55;;
78205;SDS011;67480;48.920;12.880;2023-02-01T01:03:08;8.88;;;6.53;;
78205;SDS011;67480;48.920;12.880;2023-02-01T01:05:45;10.43;;;7.35;;
78205;SDS011;67480;48.920;12.880;2023-02-01T01:08:14;11.27;;;6.30;;
78205;SDS011;67480;48.920;12.880;2023-02-01T01:10:39;9.43;;;7.05;;
78205;SDS011;67480;48.920;12.880;2023-02-01T01:13:06;7.57;;;6.07;;
78205;SDS011;67480;48.920;12.880;2023-02-01T01:15:35;9.18;;;7.00;;
78205;SDS011;67480;48.920;12.880;2023-02-01T01:18:01;9.20;;;6.50;;
78205;SDS011;67480;48.920;12.880;2023-02-01T01:20:27;8.32;;;6.10;;
78205;SDS011;67480;48.920;12.880;2023-02-01T01:22:52;9.63;;;5.80;;
78205;SDS011;67480;48.920;12.880;2023-02-01T01:25:18;8.65;;;6.30;;
78205;SDS011;67480;48.920;12.880;2023-02-01T01:27:43;10.10;;;6.88;;
78205;SDS011;67480;48.920;12.880;2023-02-01T01:30:08;8.07;;;6.75;;
78205;SDS011;67480;48.920;12.880;2023-02-01T01:32:34;9.98;;;6.07;;
78205;SDS011;67480;48.920;12.880;2023-02-01T01:34:59;8.40;;;6.13;;
78205;SDS011;67480;48.920;12.880;2023-02-01T01:37:25;9.57;;;7.18;;
78205;SDS011;67480;48.920;12.880;2023-02-01T01:39:50;8.60;;;7.00;;
78205;SDS011;67480;48.920;12.880;2023-02-01T01:42:15;7.68;;;6.22;;
78205;SDS011;67480;48.920;12.880;2023-02-01T01:44:57;7.55;;;6.22;;
78205;SDS011;67480;48.920;12.880;2023-02-01T01:47:31;11.13;;;6.43;;
78205;SDS011;67480;48.920;12.880;2023-02-01T01:50:02;10.02;;;7.32;;
78205;SDS011;67480;48.920;12.880;2023-02-01T01:52:31;7.53;;;6.47;;
78205;SDS011;67480;48.920;12.880;2023-02-01T01:54:57;10.65;;;7.20;;
78205;SDS011;67480;48.920;12.880;2023-02-01T01:57:25;8.40;;;6.50;;
78205;SDS011;67480;48.920;12.880;2023-02-01T01:59:59;7.90;;;5.97;;
78205;SDS011;67480;48.920;12.880;2023-02-01T02:02:30;8.98;;;6.60;;
78205;SDS011;67480;48.920;12.880;2023-02-01T02:04:55;8.93;;;7.35;;
78205;SDS011;67480;48.920;12.880;2023-02-01T02:07:22;9.57;;;6.95;;
78205;SDS011;67480;48.920;12.880;2023-02-01T02:09:51;9.65;;;6.90;;
78205;SDS011;67480;48.920;12.880;2023-02-01T02:12:17;10.75;;;7.07;;
78205;SDS011;67480;48.920;12.880;2023-02-01T02:14:42;8.93;;;6.40;;
78205;SDS011;67480;48.920;12.880;2023-02-01T02:23:31;7.85;;;6.38;;
78205;SDS011;67480;48.920;12.880;2023-02-01T02:25:51;7.85;;;6.35;;
78205;SDS011;67480;48.920;12.880;2023-02-01T02:31:30;8.80;;;6.65;;
78205;SDS011;67480;48.920;12.880;2023-02-01T02:42:12;9.65;;;6.97;;
78205;SDS011;67480;48.920;12.880;2023-02-01T02:45:08;10.60;;;7.20;;
78205;SDS011;67480;48.920;12.880;2023-02-01T02:51:00;9.10;;;7.30;;
78205;SDS011;67480;48.920;12.880;2023-02-01T02:56:57;10.88;;;7.82;;
78205;SDS011;67480;48.920;12.880;2023-02-01T02:59:44;8.73;;;6.28;;
78205;SDS011;67480;48.920;12.880;2023-02-01T03:02:29;9.38;;;7.28;;
78205;SDS011;67480;48.920;12.880;2023-02-01T03:05:15;9.32;;;7.43;;
78205;SDS011;67480;48.920;12.880;2023-02-01T03:12:53;8.90;;;6.53;;
78205;SDS011;67480;48.920;12.880;2023-02-01T03:15:42;9.73;;;6.88;;
78205;SDS011;67480;48.920;12.880;2023-02-01T03:18:32;10.00;;;6.90;;
78205;SDS011;67480;48.920;12.880;2023-02-01T03:21:21;7.78;;;6.95;;
78205;SDS011;67480;48.920;12.880;2023-02-01T03:23:49;8.55;;;6.32;;
78205;SDS011;67480;48.920;12.880;2023-02-01T03:26:17;10.15;;;7.20;;
78205;SDS011;67480;48.920;12.880;2023-02-01T03:28:48;9.18;;;7.07;;
78205;SDS011;67480;48.920;12.880;2023-02-01T03:31:20;10.75;;;7.53;;
78205;SDS011;67480;48.920;12.880;2023-02-01T03:33:46;9.75;;;6.90;;
78205;SDS011;67480;48.920;12.880;2023-02-01T03:36:15;10.95;;;6.53;;
78205;SDS011;67480;48.920;12.880;2023-02-01T03:41:25;8.02;;;7.15;;
78205;SDS011;67480;48.920;12.880;2023-02-01T03:43:58;11.27;;;7.93;;
78205;SDS011;67480;48.920;12.880;2023-02-01T03:46:27;11.25;;;7.18;;
78205;SDS011;67480;48.920;12.880;2023-02-01T03:48:59;10.13;;;7.28;;
78205;SDS011;67480;48.920;12.880;2023-02-01T03:51:28;10.43;;;7.05;;
78205;SDS011;67480;48.920;12.880;2023-02-01T03:53:54;8.75;;;7.20;;
78205;SDS011;67480;48.920;12.880;2023-02-01T03:56:22;10.45;;;7.65;;
78205;SDS011;67480;48.920;12.880;2023-02-01T03:58:52;11.20;;;6.95;;
78205;SDS011;67480;48.920;12.880;2023-02-01T04:01:24;8.55;;;6.90;;
78205;SDS011;67480;48.920;12.880;2023-02-01T04:03:51;8.93;;;7.30;;
78205;SDS011;67480;48.920;12.880;2023-02-01T04:06:16;11.35;;;7.97;;
78205;SDS011;67480;48.920;12.880;2023-02-01T04:08:42;9.63;;;6.97;;
78205;SDS011;67480;48.920;12.880;2023-02-01T04:11:07;9.45;;;6.90;;
78205;SDS011;67480;48.920;12.880;2023-02-01T04:13:32;10.35;;;7.90;;
78205;SDS011;67480;48.920;12.880;2023-02-01T04:15:57;8.98;;;7.20;;
78205;SDS011;67480;48.920;12.880;2023-02-01T04:18:23;9.48;;;7.10;;
78205;SDS011;67480;48.920;12.880;2023-02-01T04:20:48;10.35;;;7.45;;
78205;SDS011;67480;48.920;12.880;2023-02-01T04:23:13;8.50;;;7.07;;
78205;SDS011;67480;48.920;12.880;2023-02-01T04:25:40;8.13;;;6.75;;
78205;SDS011;67480;48.920;12.880;2023-02-01T04:28:06;9.32;;;7.35;;
78205;SDS011;67480;48.920;12.880;2023-02-01T04:30:31;8.40;;;7.10;;
78205;SDS011;67480;48.920;12.880;2023-02-01T04:32:57;8.77;;;6.68;;
78205;SDS011;67480;48.920;12.880;2023-02-01T04:35:22;8.88;;;6.93;;
78205;SDS011;67480;48.920;12.880;2023-02-01T04:37:48;8.57;;;7.05;;
78205;SDS011;67480;48.920;12.880;2023-02-01T04:40:13;12.07;;;7.53;;
78205;SDS011;67480;48.920;12.880;2023-02-01T04:42:38;9.27;;;7.10;;
78205;SDS011;67480;48.920;12.880;2023-02-01T04:45:04;9.05;;;7.05;;
78205;SDS011;67480;48.920;12.880;2023-02-01T04:47:32;8.55;;;6.53;;
78205;SDS011;67480;48.920;12.880;2023-02-01T04:49:57;9.77;;;7.38;;
78205;SDS011;67480;48.920;12.880;2023-02-01T04:52:22;8.77;;;6.57;;
78205;SDS011;67480;48.920;12.880;2023-02-01T04:54:48;9.60;;;7.82;;
78205;SDS011;67480;48.920;12.880;2023-02-01T04:57:13;10.02;;;6.78;;
78205;SDS011;67480;48.920;12.880;2023-02-01T04:59:39;8.52;;;6.85;;
78205;SDS011;67480;48.920;12.880;2023-02-01T05:02:05;10.93;;;7.65;;
78205;SDS011;67480;48.920;12.880;2023-02-01T05:04:30;10.98;;;6.85;;
78205;SDS011;67480;48.920;12.880;2023-02-01T05:06:55;8.23;;;6.32;;
78205;SDS011;67480;48.920;12.880;2023-02-01T05:09:21;8.10;;;6.47;;
78205;SDS011;67480;48.920;12.880;2023-02-01T05:11:47;7.38;;;6.22;;
78205;SDS011;67480;48.920;12.880;2023-02-01T05:14:32;10.75;;;8.32;;
78205;SDS011;67480;48.920;12.880;2023-02-01T05:16:58;8.70;;;5.95;;
78205;SDS011;67480;48.920;12.880;2023-02-01T05:19:23;17.58;;;6.25;;
78205;SDS011;67480;48.920;12.880;2023-02-01T05:21:48;7.47;;;5.55;;
78205;SDS011;67480;48.920;12.880;2023-02-01T05:24:13;7.03;;;5.72;;
78205;SDS011;67480;48.920;12.880;2023-02-01T05:26:44;7.85;;;6.00;;
78205;SDS011;67480;48.920;12.880;2023-02-01T05:29:10;7.47;;;5.30;;
78205;SDS011;67480;48.920;12.880;2023-02-01T05:31:36;7.80;;;5.43;;
78205;SDS011;67480;48.920;12.880;2023-02-01T05:34:01;7.47;;;5.80;;
78205;SDS011;67480;48.920;12.880;2023-02-01T05:36:27;7.00;;;5.50;;
78205;SDS011;67480;48.920;12.880;2023-02-01T05:38:52;7.05;;;5.30;;
78205;SDS011;67480;48.920;12.880;2023-02-01T05:41:18;7.35;;;5.35;;
78205;SDS011;67480;48.920;12.880;2023-02-01T05:43:43;10.02;;;6.38;;
78205;SDS011;67480;48.920;12.880;2023-02-01T05:46:08;9.43;;;6.80;;
78205;SDS011;67480;48.920;12.880;2023-02-01T05:48:37;8.05;;;5.30;;
78205;SDS011;67480;48.920;12.880;2023-02-01T05:51:03;6.38;;;5.53;;
78205;SDS011;67480;48.920;12.880;2023-02-01T05:53:28;6.32;;;5.10;;
78205;SDS011;67480;48.920;12.880;2023-02-01T05:55:53;7.97;;;6.35;;
78205;SDS011;67480;48.920;12.880;2023-02-01T05:58:19;11.13;;;8.00;;
78205;SDS011;67480;48.920;12.880;2023-02-01T06:00:44;11.88;;;8.75;;
78205;SDS011;67480;48.920;12.880;2023-02-01T06:03:09;7.28;;;6.07;;
78205;SDS011;67480;48.920;12.880;2023-02-01T06:05:34;8.45;;;6.07;;
78205;SDS011;67480;48.920;12.880;2023-02-01T06:08:00;6.25;;;5.47;;
78205;SDS011;67480;48.920;12.880;2023-02-01T06:10:25;7.00;;;4.90;;
78205;SDS011;67480;48.920;12.880;2023-02-01T06:12:50;6.63;;;5.25;;
78205;SDS011;67480;48.920;12.880;2023-02-01T06:15:16;7.05;;;5.25;;
78205;SDS011;67480;48.920;12.880;2023-02-01T06:17:41;6.68;;;5.55;;
78205;SDS011;67480;48.920;12.880;2023-02-01T06:20:09;7.05;;;5.57;;
78205;SDS011;67480;48.920;12.880;2023-02-01T06:22:35;7.45;;;5.28;;
78205;SDS011;67480;48.920;12.880;2023-02-01T06:25:01;6.70;;;5.00;;
78205;SDS011;67480;48.920;12.880;2023-02-01T06:27:27;6.85;;;5.20;;
78205;SDS011;67480;48.920;12.880;2023-02-01T06:29:53;5.72;;;5.07;;
78205;SDS011;67480;48.920;12.880;2023-02-01T06:32:20;7.15;;;5.43;;
78205;SDS011;67480;48.920;12.880;2023-02-01T06:34:45;6.63;;;4.97;;
78205;SDS011;67480;48.920;12.880;2023-02-01T06:37:10;7.32;;;5.40;;
78205;SDS011;67480;48.920;12.880;2023-02-01T06:39:36;8.02;;;5.30;;
78205;SDS011;67480;48.920;12.880;2023-02-01T06:42:02;6.90;;;5.72;;
78205;SDS011;67480;48.920;12.880;2023-02-01T06:44:27;8.57;;;6.95;;
78205;SDS011;67480;48.920;12.880;2023-02-01T06:46:53;8.25;;;5.18;;
78205;SDS011;67480;48.920;12.880;2023-02-01T06:49:19;6.93;;;5.60;;
78205;SDS011;67480;48.920;12.880;2023-02-01T06:51:45;5.65;;;4.80;;
78205;SDS011;67480;48.920;12.880;2023-02-01T06:54:10;5.80;;;5.13;;
78205;SDS011;67480;48.920;12.880;2023-02-01T06:56:35;6.38;;;5.05;;
78205;SDS011;67480;48.920;12.880;2023-02-01T06:59:03;6.30;;;5.25;;
78205;SDS011;67480;48.920;12.880;2023-02-01T07:01:29;8.75;;;5.90;;
78205;SDS011;67480;48.920;12.880;2023-02-01T07:03:54;7.30;;;5.75;;
78205;SDS011;67480;48.920;12.880;2023-02-01T07:06:19;6.78;;;5.68;;
78205;SDS011;67480;48.920;12.880;2023-02-01T07:08:45;19.92;;;14.70;;
78205;SDS011;67480;48.920;12.880;2023-02-01T07:11:12;10.63;;;7.22;;
78205;SDS011;67480;48.920;12.880;2023-02-01T07:13:38;10.23;;;6.97;;
78205;SDS011;67480;48.920;12.880;2023-02-01T07:16:05;9.07;;;6.13;;
78205;SDS011;67480;48.920;12.880;2023-02-01T07:18:32;8.35;;;5.78;;
78205;SDS011;67480;48.920;12.880;2023-02-01T07:20:58;6.80;;;5.65;;
78205;SDS011;67480;48.920;12.880;2023-02-01T07:23:23;7.35;;;5.82;;
78205;SDS011;67480;48.920;12.880;2023-02-01T07:25:52;5.75;;;5.10;;
78205;SDS011;67480;48.920;12.880;2023-02-01T07:28:18;12.38;;;8.63;;
78205;SDS011;67480;48.920;12.880;2023-02-01T07:30:44;6.63;;;5.35;;
78205;SDS011;67480;48.920;12.880;2023-02-01T07:33:15;7.75;;;5.97;;
78205;SDS011;67480;48.920;12.880;2023-02-01T07:35:41;8.52;;;5.05;;
78205;SDS011;67480;48.920;12.880;2023-02-01T07:38:06;5.35;;;4.85;;
78205;SDS011;67480;48.920;12.880;2023-02-01T07:40:31;5.55;;;5.03;;
78205;SDS011;67480;48.920;12.880;2023-02-01T07:42:57;3.60;;;3.30;;
78205;SDS011;67480;48.920;12.880;2023-02-01T07:45:23;4.40;;;4.00;;
78205;SDS011;67480;48.920;12.880;2023-02-01T07:47:48;4.72;;;3.63;;
78205;SDS011;67480;48.920;12.880;2023-02-01T07:50:16;4.22;;;3.83;;
78205;SDS011;67480;48.920;12.880;2023-02-01T07:52:41;3.50;;;3.20;;
78205;SDS011;67480;48.920;12.880;2023-02-01T07:55:07;4.20;;;3.80;;
78205;SDS011;67480;48.920;12.880;2023-02-01T07:57:32;4.07;;;3.78;;
78205;SDS011;67480;48.920;12.880;2023-02-01T07:59:58;3.40;;;3.10;;
78205;SDS011;67480;48.920;12.880;2023-02-01T08:02:41;2.03;;;1.93;;
78205;SDS011;67480;48.920;12.880;2023-02-01T08:05:07;2.63;;;2.42;;
78205;SDS011;67480;48.920;12.880;2023-02-01T08:07:33;3.85;;;2.38;;
78205;SDS011;67480;48.920;12.880;2023-02-01T08:09:58;2.60;;;2.40;;
78205;SDS011;67480;48.920;12.880;2023-02-01T08:12:24;2.70;;;2.50;;
78205;SDS011;67480;48.920;12.880;2023-02-01T08:14:50;1.73;;;1.63;;
78205;SDS011;67480;48.920;12.880;2023-02-01T08:17:15;1.45;;;1.40;;
78205;SDS011;67480;48.920;12.880;2023-02-01T08:19:40;1.70;;;1.60;;
78205;SDS011;67480;48.920;12.880;2023-02-01T08:22:06;2.28;;;1.92;;
78205;SDS011;67480;48.920;12.880;2023-02-01T08:24:32;1.40;;;1.40;;
78205;SDS011;67480;48.920;12.880;2023-02-01T08:26:59;1.60;;;1.50;;
78205;SDS011;67480;48.920;12.880;2023-02-01T08:29:25;1.48;;;1.38;;
78205;SDS011;67480;48.920;12.880;2023-02-01T08:31:51;2.67;;;2.47;;
78205;SDS011;67480;48.920;12.880;2023-02-01T08:34:16;2.00;;;1.90;;
78205;SDS011;67480;48.920;12.880;2023-02-01T08:36:42;1.90;;;1.80;;
78205;SDS011;67480;48.920;12.880;2023-02-01T08:39:08;5.47;;;4.28;;
78205;SDS011;67480;48.920;12.880;2023-02-01T08:41:35;3.70;;;2.83;;
78205;SDS011;67480;48.920;12.880;2023-02-01T08:44:00;2.67;;;2.47;;
78205;SDS011;67480;48.920;12.880;2023-02-01T08:46:26;3.60;;;3.30;;
78205;SDS011;67480;48.920;12.880;2023-02-01T08:48:52;4.85;;;4.35;;
78205;SDS011;67480;48.920;12.880;2023-02-01T08:51:18;3.42;;;3.13;;
78205;SDS011;67480;48.920;12.880;2023-02-01T08:53:45;3.90;;;3.60;;
78205;SDS011;67480;48.920;12.880;2023-02-01T08:56:12;4.38;;;3.70;;
78205;SDS011;67480;48.920;12.880;2023-02-01T08:58:38;4.65;;;4.22;;
78205;SDS011;67480;48.920;12.880;2023-02-01T09:01:08;4.90;;;4.38;;
78205;SDS011;67480;48.920;12.880;2023-02-01T09:03:38;4.72;;;4.10;;
78205;SDS011;67480;48.920;12.880;2023-02-01T09:06:05;4.10;;;3.70;;
78205;SDS011;67480;48.920;12.880;2023-02-01T09:08:32;10.73;;;6.53;;
78205;SDS011;67480;48.920;12.880;2023-02-01T09:11:02;5.93;;;5.05;;
78205;SDS011;67480;48.920;12.880;2023-02-01T09:13:30;5.05;;;4.55;;
78205;SDS011;67480;48.920;12.880;2023-02-01T09:15:56;4.85;;;4.45;;
78205;SDS011;67480;48.920;12.880;2023-02-01T09:18:21;6.53;;;4.95;;
78205;SDS011;67480;48.920;12.880;2023-02-01T09:20:47;7.55;;;5.20;;
78205;SDS011;67480;48.920;12.880;2023-02-01T09:23:12;7.47;;;6.22;;
78205;SDS011;67480;48.920;12.880;2023-02-01T09:25:37;6.35;;;5.75;;
78205;SDS011;67480;48.920;12.880;2023-02-01T09:28:03;7.15;;;6.07;;
78205;SDS011;67480;48.920;12.880;2023-02-01T09:30:31;6.25;;;5.13;;
78205;SDS011;67480;48.920;12.880;2023-02-01T09:32:57;6.80;;;6.10;;
78205;SDS011;67480;48.920;12.880;2023-02-01T09:35:22;8.32;;;6.43;;
78205;SDS011;67480;48.920;12.880;2023-02-01T09:37:47;6.93;;;6.00;;
78205;SDS011;67480;48.920;12.880;2023-02-01T09:40:14;8.18;;;5.97;;
78205;SDS011;67480;48.920;12.880;2023-02-01T09:45:49;9.70;;;7.70;;
78205;SDS011;67480;48.920;12.880;2023-02-01T09:48:27;6.32;;;5.70;;
78205;SDS011;67480;48.920;12.880;2023-02-01T09:50:57;10.38;;;9.27;;
78205;SDS011;67480;48.920;12.880;2023-02-01T09:53:26;9.35;;;8.35;;
78205;SDS011;67480;48.920;12.880;2023-02-01T09:55:58;14.15;;;9.30;;
78205;SDS011;67480;48.920;12.880;2023-02-01T10:00:54;6.72;;;5.85;;
78205;SDS011;67480;48.920;12.880;2023-02-01T10:03:26;7.85;;;6.30;;
78205;SDS011;67480;48.920;12.880;2023-02-01T10:22:10;5.00;;;4.50;;
78205;SDS011;67480;48.920;12.880;2023-02-01T10:29:40;5.47;;;4.45;;
78205;SDS011;67480;48.920;12.880;2023-02-01T10:32:19;6.28;;;4.10;;
78205;SDS011;67480;48.920;12.880;2023-02-01T10:34:49;4.90;;;4.13;;
78205;SDS011;67480;48.920;12.880;2023-02-01T10:40:00;6.15;;;5.15;;
78205;SDS011;67480;48.920;12.880;2023-02-01T10:42:36;4.75;;;3.92;;
78205;SDS011;67480;48.920;12.880;2023-02-01T10:45:02;7.10;;;5.47;;
78205;SDS011;67480;48.920;12.880;2023-02-01T10:47:29;5.53;;;5.03;;
78205;SDS011;67480;48.920;12.880;2023-02-01T10:49:55;6.82;;;4.30;;
78205;SDS011;67480;48.920;12.880;2023-02-01T10:54:55;6.05;;;4.88;;
78205;SDS011;67480;48.920;12.880;2023-02-01T10:57:25;5.22;;;4.72;;
78205;SDS011;67480;48.920;12.880;2023-02-01T10:59:53;6.28;;;5.70;;
78205;SDS011;67480;48.920;12.880;2023-02-01T11:02:20;5.45;;;4.50;;
78205;SDS011;67480;48.920;12.880;2023-02-01T11:04:58;6.40;;;4.75;;
78205;SDS011;67480;48.920;12.880;2023-02-01T11:07:25;5.25;;;4.75;;
78205;SDS011;67480;48.920;12.880;2023-02-01T11:09:52;5.45;;;4.93;;
78205;SDS011;67480;48.920;12.880;2023-02-01T11:12:22;6.32;;;5.20;;
78205;SDS011;67480;48.920;12.880;2023-02-01T11:14:55;9.80;;;6.03;;
78205;SDS011;67480;48.920;12.880;2023-02-01T11:17:45;9.32;;;6.53;;
78205;SDS011;67480;48.920;12.880;2023-02-01T11:20:13;9.10;;;7.70;;
78205;SDS011;67480;48.920;12.880;2023-02-01T11:22:48;9.02;;;6.80;;
78205;SDS011;67480;48.920;12.880;2023-02-01T11:25:19;10.68;;;7.78;;
78205;SDS011;67480;48.920;12.880;2023-02-01T11:27:46;7.78;;;6.65;;
78205;SDS011;67480;48.920;12.880;2023-02-01T11:30:15;10.55;;;7.68;;
78205;SDS011;67480;48.920;12.880;2023-02-01T11:32:42;8.27;;;7.38;;
78205;SDS011;67480;48.920;12.880;2023-02-01T11:35:15;5.40;;;4.65;;
78205;SDS011;67480;48.920;12.880;2023-02-01T11:37:44;3.30;;;3.00;;
78205;SDS011;67480;48.920;12.880;2023-02-01T11:45:33;18.90;;;11.23;;
78205;SDS011;67480;48.920;12.880;2023-02-01T11:48:00;4.68;;;3.42;;
78205;SDS011;67480;48.920;12.880;2023-02-01T11:50:46;2.75;;;2.47;;
78205;SDS011;67480;48.920;12.880;2023-02-01T12:01:30;5.47;;;2.75;;
78205;SDS011;67480;48.920;12.880;2023-02-01T12:34:47;8.27;;;2.78;;
78205;SDS011;67480;48.920;12.880;2023-02-01T12:37:36;9.57;;;2.53;;
78205;SDS011;67480;48.920;12.880;2023-02-01T12:40:28;6.75;;;3.08;;
78205;SDS011;67480;48.920;12.880;2023-02-01T12:43:16;5.90;;;3.20;;
78205;SDS011;67480;48.920;12.880;2023-02-01T12:46:01;6.72;;;2.80;;
78205;SDS011;67480;48.920;12.880;2023-02-01T12:48:33;7.05;;;3.28;;
78205;SDS011;67480;48.920;12.880;2023-02-01T12:51:07;6.20;;;3.17;;
78205;SDS011;67480;48.920;12.880;2023-02-01T12:59:22;5.70;;;3.28;;
78205;SDS011;67480;48.920;12.880;2023-02-01T13:04:49;9.70;;;4.45;;
78205;SDS011;67480;48.920;12.880;2023-02-01T13:07:46;9.73;;;4.22;;
78205;SDS011;67480;48.920;12.880;2023-02-01T13:13:02;10.27;;;5.47;;
78205;SDS011;67480;48.920;12.880;2023-02-01T13:15:49;12.38;;;5.35;;
78205;SDS011;67480;48.920;12.880;2023-02-01T13:18:22;12.38;;;8.07;;
78205;SDS011;67480;48.920;12.880;2023-02-01T13:23:36;11.87;;;5.93;;
78205;SDS011;67480;48.920;12.880;2023-02-01T13:26:03;14.73;;;6.70;;
78205;SDS011;67480;48.920;12.880;2023-02-01T13:28:30;8.52;;;4.38;;
78205;SDS011;67480;48.920;12.880;2023-02-01T13:42:18;9.50;;;4.55;;
78205;SDS011;67480;48.920;12.880;2023-02-01T13:44:51;14.25;;;5.75;;
78205;SDS011;67480;48.920;12.880;2023-02-01T13:47:23;7.28;;;4.30;;
78205;SDS011;67480;48.920;12.880;2023-02-01T13:49:49;7.30;;;4.63;;
78205;SDS011;67480;48.920;12.880;2023-02-01T13:55:24;8.65;;;4.63;;
78205;SDS011;67480;48.920;12.880;2023-02-01T13:57:52;9.43;;;4.78;;
78205;SDS011;67480;48.920;12.880;2023-02-01T14:23:41;11.18;;;4.57;;
78205;SDS011;67480;48.920;12.880;2023-02-01T14:26:09;6.53;;;4.32;;
78205;SDS011;67480;48.920;12.880;2023-02-01T14:28:39;9.52;;;4.95;;
78205;SDS011;67480;48.920;12.880;2023-02-01T14:31:15;12.15;;;5.22;;
78205;SDS011;67480;48.920;12.880;2023-02-01T14:33:54;10.88;;;4.75;;
78205;SDS011;67480;48.920;12.880;2023-02-01T14:36:22;5.40;;;4.18;;
78205;SDS011;67480;48.920;12.880;2023-02-01T14:38:48;8.70;;;4.95;;
78205;SDS011;67480;48.920;12.880;2023-02-01T14:41:34;9.50;;;6.15;;
78205;SDS011;67480;48.920;12.880;2023-02-01T14:47:02;8.85;;;5.30;;
78205;SDS011;67480;48.920;12.880;2023-02-01T14:49:33;10.27;;;6.03;;
78205;SDS011;67480;48.920;12.880;2023-02-01T14:52:02;11.40;;;5.18;;
78205;SDS011;67480;48.920;12.880;2023-02-01T14:54:34;13.32;;;7.45;;
78205;SDS011;67480;48.920;12.880;2023-02-01T14:57:00;8.15;;;5.28;;
78205;SDS011;67480;48.920;12.880;2023-02-01T14:59:27;19.40;;;10.25;;
78205;SDS011;67480;48.920;12.880;2023-02-01T15:01:58;25.65;;;12.35;;
78205;SDS011;67480;48.920;12.880;2023-02-01T15:04:26;9.43;;;6.10;;
78205;SDS011;67480;48.920;12.880;2023-02-01T15:09:24;13.55;;;6.55;;
78205;SDS011;67480;48.920;12.880;2023-02-01T15:12:00;9.93;;;5.95;;
78205;SDS011;67480;48.920;12.880;2023-02-01T15:14:26;14.75;;;6.60;;
78205;SDS011;67480;48.920;12.880;2023-02-01T15:16:53;10.85;;;6.10;;
78205;SDS011;67480;48.920;12.880;2023-02-01T15:19:19;14.85;;;8.88;;
78205;SDS011;67480;48.920;12.880;2023-02-01T15:21:47;12.45;;;6.40;;
78205;SDS011;67480;48.920;12.880;2023-02-01T15:24:18;10.35;;;5.80;;
78205;SDS011;67480;48.920;12.880;2023-02-01T15:26:43;9.23;;;6.00;;
78205;SDS011;67480;48.920;12.880;2023-02-01T15:29:12;6.25;;;5.55;;
78205;SDS011;67480;48.920;12.880;2023-02-01T15:31:40;7.03;;;5.25;;
78205;SDS011;67480;48.920;12.880;2023-02-01T15:34:07;9.05;;;6.00;;
78205;SDS011;67480;48.920;12.880;2023-02-01T15:36:33;10.18;;;5.82;;
78205;SDS011;67480;48.920;12.880;2023-02-01T15:41:52;10.20;;;5.50;;
78205;SDS011;67480;48.920;12.880;2023-02-01T15:44:21;11.32;;;6.65;;
78205;SDS011;67480;48.920;12.880;2023-02-01T15:46:54;9.88;;;5.20;;
78205;SDS011;67480;48.920;12.880;2023-02-01T15:49:23;10.55;;;5.38;;
78205;SDS011;67480;48.920;12.880;2023-02-01T15:51:51;11.48;;;5.80;;
78205;SDS011;67480;48.920;12.880;2023-02-01T15:54:19;9.38;;;5.47;;
78205;SDS011;67480;48.920;12.880;2023-02-01T15:56:51;6.95;;;5.10;;
78205;SDS011;67480;48.920;12.880;2023-02-01T15:59:20;7.57;;;4.60;;
78205;SDS011;67480;48.920;12.880;2023-02-01T16:01:48;9.60;;;4.35;;
78205;SDS011;67480;48.920;12.880;2023-02-01T16:04:17;9.68;;;4.50;;
78205;SDS011;67480;48.920;12.880;2023-02-01T16:06:54;10.02;;;4.38;;
78205;SDS011;67480;48.920;12.880;2023-02-01T16:09:39;7.25;;;4.35;;
78205;SDS011;67480;48.920;12.880;2023-02-01T16:12:31;8.82;;;3.97;;
78205;SDS011;67480;48.920;12.880;2023-02-01T16:15:11;12.00;;;5.78;;
78205;SDS011;67480;48.920;12.880;2023-02-01T16:17:36;12.60;;;5.50;;
78205;SDS011;67480;48.920;12.880;2023-02-01T16:20:02;9.10;;;4.80;;
78205;SDS011;67480;48.920;12.880;2023-02-01T16:22:27;14.32;;;6.28;;
78205;SDS011;67480;48.920;12.880;2023-02-01T16:24:53;7.05;;;4.47;;
78205;SDS011;67480;48.920;12.880;2023-02-01T16:27:18;7.25;;;4.20;;
78205;SDS011;67480;48.920;12.880;2023-02-01T16:29:44;9.45;;;4.20;;
78205;SDS011;67480;48.920;12.880;2023-02-01T16:32:14;10.18;;;4.80;;
78205;SDS011;67480;48.920;12.880;2023-02-01T16:34:43;17.87;;;5.27;;
78205;SDS011;67480;48.920;12.880;2023-02-01T16:37:11;10.98;;;4.80;;
78205;SDS011;67480;48.920;12.880;2023-02-01T16:39:39;8.52;;;4.75;;
78205;SDS011;67480;48.920;12.880;2023-02-01T16:42:14;9.65;;;4.50;;
78205;SDS011;67480;48.920;12.880;2023-02-01T16:44:40;8.13;;;4.45;;
78205;SDS011;67480;48.920;12.880;2023-02-01T16:47:14;7.93;;;4.20;;
78205;SDS011;67480;48.920;12.880;2023-02-01T16:49:42;12.10;;;4.18;;
78205;SDS011;67480;48.920;12.880;2023-02-01T16:52:11;8.05;;;4.32;;
78205;SDS011;67480;48.920;12.880;2023-02-01T16:54:45;20.35;;;8.50;;
78205;SDS011;67480;48.920;12.880;2023-02-01T16:57:12;17.42;;;6.88;;
78205;SDS011;67480;48.920;12.880;2023-02-01T16:59:39;7.30;;;4.78;;
78205;SDS011;67480;48.920;12.880;2023-02-01T17:02:05;10.13;;;5.03;;
78205;SDS011;67480;48.920;12.880;2023-02-01T17:04:31;14.65;;;4.63;;
78205;SDS011;67480;48.920;12.880;2023-02-01T17:06:56;16.48;;;8.00;;
78205;SDS011;67480;48.920;12.880;2023-02-01T17:09:23;9.35;;;5.15;;
78205;SDS011;67480;48.920;12.880;2023-02-01T17:11:50;13.15;;;5.53;;
78205;SDS011;67480;48.920;12.880;2023-02-01T17:14:19;9.55;;;3.45;;
78205;SDS011;67480;48.920;12.880;2023-02-01T17:16:46;9.13;;;4.05;;
78205;SDS011;67480;48.920;12.880;2023-02-01T17:19:14;11.52;;;4.10;;
78205;SDS011;67480;48.920;12.880;2023-02-01T17:21:50;8.30;;;4.78;;
78205;SDS011;67480;48.920;12.880;2023-02-01T17:24:20;8.23;;;4.32;;
78205;SDS011;67480;48.920;12.880;2023-02-01T17:26:47;12.75;;;4.35;;
78205;SDS011;67480;48.920;12.880;2023-02-01T17:29:13;7.97;;;3.90;;